createdAt,value
2023-09-22T00:00:21.784Z,17.77
2023-09-22T00:04:34.004Z,16.50
2023-09-22T00:08:47.112Z,19.15
2023-09-22T00:12:59.656Z,15.85
2023-09-22T00:17:11.851Z,12.40
2023-09-22T00:21:24.068Z,15.00
2023-09-22T00:25:36.273Z,24.60
2023-09-22T00:29:48.454Z,23.58
2023-09-22T00:34:00.643Z,23.98
2023-09-22T00:38:12.905Z,22.90
2023-09-22T00:42:25.442Z,22.88
2023-09-22T00:46:39.170Z,35.38
2023-09-22T00:50:52.462Z,29.30
2023-09-22T00:55:07.388Z,28.95
2023-09-22T00:59:19.967Z,25.80
2023-09-22T01:03:32.384Z,20.85
2023-09-22T01:07:46.269Z,25.90
2023-09-22T01:11:58.519Z,17.73
2023-09-22T01:16:11.019Z,23.95
2023-09-22T01:20:24.389Z,18.70
2023-09-22T01:24:36.847Z,21.15
2023-09-22T01:28:49.463Z,19.23
2023-09-22T01:33:05.018Z,28.25
2023-09-22T01:37:18.039Z,23.20
2023-09-22T01:41:30.465Z,32.25
2023-09-22T01:45:42.815Z,25.83
2023-09-22T01:49:55.788Z,25.63
2023-09-22T01:54:08.043Z,30.90
2023-09-22T01:58:21.563Z,19.73
2023-09-22T02:02:35.740Z,21.20
2023-09-22T02:06:48.128Z,17.95
2023-09-22T02:11:00.586Z,18.02
2023-09-22T02:15:13.832Z,17.58
2023-09-22T02:19:26.658Z,18.60
2023-09-22T02:23:38.994Z,17.25
2023-09-22T02:27:55.841Z,17.08
2023-09-22T02:32:08.690Z,19.70
2023-09-22T02:36:21.181Z,15.05
2023-09-22T02:40:33.432Z,17.02
2023-09-22T02:44:45.645Z,17.13
2023-09-22T02:48:58.640Z,21.80
2023-09-22T02:53:11.049Z,16.80
2023-09-22T02:57:23.412Z,19.50
2023-09-22T03:01:37.995Z,15.02
2023-09-22T03:05:50.342Z,19.80
2023-09-22T03:10:04.018Z,24.23
2023-09-22T03:14:16.433Z,15.98
2023-09-22T03:18:29.614Z,14.73
2023-09-22T03:22:43.703Z,15.70
2023-09-22T03:26:56.221Z,17.23
2023-09-22T03:31:08.995Z,21.50
2023-09-22T03:35:22.852Z,20.25
2023-09-22T03:39:35.448Z,21.45
2023-09-22T03:43:48.862Z,26.50
2023-09-22T03:48:01.219Z,19.88
2023-09-22T03:52:15.614Z,19.17
2023-09-22T03:56:27.921Z,21.08
2023-09-22T04:00:41.516Z,28.27
2023-09-22T04:04:57.336Z,19.40
2023-09-22T04:09:11.190Z,19.55
2023-09-22T04:13:25.532Z,23.42
2023-09-22T04:17:39.854Z,26.10
2023-09-22T04:21:55.917Z,19.65
2023-09-22T04:26:10.965Z,14.15
2023-09-22T04:30:23.708Z,24.02
2023-09-22T04:34:38.950Z,22.77
2023-09-22T04:38:51.796Z,23.25
2023-09-22T04:43:06.597Z,23.13
2023-09-22T04:47:19.105Z,31.08
2023-09-22T04:51:31.513Z,27.92
2023-09-22T04:55:44.039Z,28.58
2023-09-22T04:59:56.285Z,29.20
2023-09-22T05:04:08.586Z,26.90
2023-09-22T05:08:21.380Z,29.55
2023-09-22T05:12:33.783Z,21.98
2023-09-22T05:16:46.136Z,28.30
2023-09-22T05:21:01.192Z,20.50
2023-09-22T05:25:15.421Z,31.55
2023-09-22T05:29:27.841Z,35.85
2023-09-22T05:33:40.125Z,32.50
2023-09-22T05:37:53.800Z,28.27
2023-09-22T05:42:07.773Z,39.78
2023-09-22T05:46:20.084Z,38.90
2023-09-22T05:50:32.520Z,41.88
2023-09-22T05:54:46.843Z,35.33
2023-09-22T05:58:59.445Z,47.25
2023-09-22T06:03:11.800Z,41.92
2023-09-22T06:07:24.083Z,44.70
2023-09-22T06:11:36.337Z,34.63
2023-09-22T06:15:48.657Z,42.70
2023-09-22T06:20:06.103Z,32.25
2023-09-22T06:24:19.135Z,43.95
2023-09-22T06:28:31.402Z,40.13
2023-09-22T06:32:44.520Z,45.00
2023-09-22T06:36:56.734Z,59.78
2023-09-22T06:41:09.304Z,40.20
2023-09-22T06:45:21.537Z,47.35
2023-09-22T06:49:34.934Z,43.55
2023-09-22T06:53:49.698Z,40.13
2023-09-22T06:58:02.009Z,46.58
2023-09-22T07:02:14.468Z,44.22
2023-09-22T07:06:26.729Z,26.38
2023-09-22T07:10:39.537Z,27.08
2023-09-22T07:14:51.865Z,31.55
2023-09-22T07:19:04.320Z,37.40
2023-09-22T07:23:16.762Z,34.22
2023-09-22T07:27:29.455Z,38.80
2023-09-22T07:31:42.000Z,37.25
2023-09-22T07:35:54.340Z,24.63
2023-09-22T07:40:11.019Z,29.25
2023-09-22T07:44:24.056Z,33.08
2023-09-22T07:48:38.443Z,37.83
2023-09-22T07:52:51.205Z,37.30
2023-09-22T07:57:03.974Z,52.95
2023-09-22T08:01:20.205Z,50.15
2023-09-22T08:05:32.692Z,43.33
2023-09-22T08:09:45.129Z,40.78
2023-09-22T08:13:59.597Z,43.97
2023-09-22T08:18:12.074Z,46.08
2023-09-22T08:22:26.528Z,41.60
2023-09-22T08:26:38.959Z,79.97
2023-09-22T08:30:51.402Z,63.00
2023-09-22T08:35:04.316Z,54.97
2023-09-22T08:39:16.664Z,27.10
2023-09-22T08:43:29.294Z,38.15
2023-09-22T08:47:44.251Z,25.70
2023-09-22T08:51:57.674Z,31.30
2023-09-22T08:56:11.371Z,31.95
2023-09-22T09:00:24.944Z,35.53
2023-09-22T09:04:43.115Z,30.25
2023-09-22T09:09:14.536Z,23.42
2023-09-22T09:13:28.668Z,27.02
2023-09-22T09:17:40.923Z,30.10
2023-09-22T09:22:15.300Z,32.92
2023-09-22T09:26:47.235Z,30.65
2023-09-22T09:30:59.981Z,34.78
2023-09-22T09:35:12.791Z,37.78
2023-09-22T09:39:43.898Z,26.10
2023-09-22T09:43:56.539Z,27.70
2023-09-22T09:48:11.449Z,29.73
2023-09-22T09:52:29.157Z,34.38
2023-09-22T09:56:43.043Z,34.03
2023-09-22T10:00:59.590Z,33.00
2023-09-22T10:05:12.737Z,35.30
2023-09-22T10:09:25.109Z,35.05
2023-09-22T10:13:37.546Z,26.52
2023-09-22T10:17:56.783Z,35.92
2023-09-22T10:22:13.806Z,35.45
2023-09-22T10:26:26.317Z,40.70
2023-09-22T10:30:44.596Z,33.47
2023-09-22T10:34:59.851Z,27.10
2023-09-22T10:39:12.123Z,27.45
2023-09-22T10:43:24.280Z,33.83
2023-09-22T10:47:38.719Z,32.80
2023-09-22T10:51:50.932Z,34.47
2023-09-22T10:56:07.136Z,31.13
2023-09-22T11:00:20.314Z,33.90
2023-09-22T11:04:42.917Z,31.40
2023-09-22T11:08:55.381Z,27.73
2023-09-22T11:13:09.125Z,26.52
2023-09-22T11:17:21.905Z,32.33
2023-09-22T11:21:40.828Z,34.47
2023-09-22T11:26:01.822Z,32.00
2023-09-22T11:30:17.665Z,36.28
2023-09-22T11:34:29.816Z,31.98
2023-09-22T11:38:42.166Z,31.88
2023-09-22T11:42:54.385Z,40.40
2023-09-22T11:47:06.624Z,32.53
2023-09-22T11:51:19.152Z,29.70
2023-09-22T11:55:32.356Z,36.30
2023-09-22T11:59:46.630Z,42.15
2023-09-22T12:03:58.816Z,43.17
2023-09-22T12:08:11.460Z,39.28
2023-09-22T12:12:23.749Z,28.45
2023-09-22T12:16:36.190Z,40.35
2023-09-22T12:20:48.537Z,29.90
2023-09-22T12:25:00.614Z,41.80
2023-09-22T12:29:15.110Z,34.20
2023-09-22T12:33:27.455Z,37.75
2023-09-22T12:37:39.674Z,43.22
2023-09-22T12:41:51.854Z,37.58
2023-09-22T12:46:08.154Z,36.15
2023-09-22T12:50:20.353Z,45.58
2023-09-22T12:54:32.543Z,33.53
2023-09-22T12:58:44.898Z,41.63
2023-09-22T13:02:58.294Z,43.83
2023-09-22T13:07:11.030Z,37.33
2023-09-22T13:11:23.198Z,38.75
2023-09-22T13:15:36.511Z,32.08
2023-09-22T13:19:48.758Z,53.80
2023-09-22T13:24:01.029Z,41.67
2023-09-22T13:28:13.525Z,33.13
2023-09-22T13:32:25.753Z,39.70
2023-09-22T13:36:38.266Z,36.28
2023-09-22T13:40:51.926Z,40.17
2023-09-22T13:45:04.853Z,34.03
2023-09-22T13:49:17.160Z,49.58
2023-09-22T13:53:29.384Z,38.30
2023-09-22T13:57:43.497Z,35.47
2023-09-22T14:04:12.818Z,39.42
2023-09-22T14:08:25.267Z,41.70
2023-09-22T14:12:38.566Z,38.78
2023-09-22T14:16:52.679Z,35.17
2023-09-22T14:21:05.715Z,41.38
2023-09-22T14:25:20.261Z,37.70
2023-09-22T14:29:33.030Z,49.80
2023-09-22T14:33:46.234Z,46.30
2023-09-22T14:37:59.322Z,41.72
2023-09-22T14:42:11.907Z,40.97
2023-09-22T14:46:24.901Z,47.70
2023-09-22T14:50:37.888Z,41.75
2023-09-22T14:54:50.329Z,48.55
2023-09-22T14:59:02.797Z,54.80
2023-09-22T15:03:15.989Z,39.00
2023-09-22T15:07:28.403Z,44.22
2023-09-22T15:11:40.903Z,42.67
2023-09-22T15:15:53.418Z,43.20
2023-09-22T15:20:07.614Z,43.75
2023-09-22T15:24:20.064Z,43.58
2023-09-22T15:28:32.754Z,45.53
2023-09-22T15:32:45.288Z,38.72
2023-09-22T15:36:58.110Z,43.90
2023-09-22T15:41:11.675Z,41.38
2023-09-22T15:45:24.190Z,42.60
2023-09-22T15:49:36.815Z,52.80
2023-09-22T15:53:50.066Z,48.60
2023-09-22T15:58:02.565Z,42.85
2023-09-22T16:02:14.996Z,46.45
2023-09-22T16:06:27.731Z,38.55
2023-09-22T16:10:44.638Z,38.33
2023-09-22T16:14:57.272Z,42.60
2023-09-22T16:19:10.452Z,46.78
2023-09-22T16:23:22.987Z,43.17
2023-09-22T16:27:35.671Z,42.63
2023-09-22T16:31:48.081Z,42.83
2023-09-22T16:36:00.570Z,39.20
2023-09-22T16:40:13.573Z,42.22
2023-09-22T16:44:26.272Z,47.95
2023-09-22T16:48:39.149Z,54.03
2023-09-22T16:52:51.570Z,53.13
2023-09-22T16:57:05.117Z,52.45
2023-09-22T17:01:17.625Z,55.55
2023-09-22T17:05:30.468Z,49.60
2023-09-22T17:09:43.416Z,55.72
2023-09-22T17:13:55.925Z,54.60
2023-09-22T17:18:10.519Z,50.72
2023-09-22T17:22:25.732Z,65.80
2023-09-22T17:26:38.222Z,53.20
2023-09-22T17:30:59.092Z,54.42
2023-09-22T17:35:13.298Z,61.25
2023-09-22T17:39:25.652Z,54.15
2023-09-22T17:43:38.143Z,61.53
2023-09-22T17:47:50.872Z,58.85
2023-09-22T17:52:03.521Z,72.53
2023-09-22T17:56:16.213Z,56.03
2023-09-22T18:00:29.931Z,49.05
2023-09-22T18:04:42.723Z,72.53
2023-09-22T18:08:55.240Z,58.22
2023-09-22T18:13:10.243Z,44.80
2023-09-22T18:17:23.415Z,50.08
2023-09-22T18:21:36.363Z,49.72
2023-09-22T18:26:09.521Z,41.72
2023-09-22T18:30:23.172Z,47.70
2023-09-22T18:34:36.324Z,42.42
2023-09-22T18:38:49.062Z,45.20
2023-09-22T18:43:02.749Z,47.05
2023-09-22T18:47:15.403Z,41.53
2023-09-22T18:51:29.119Z,38.67
2023-09-22T18:55:51.600Z,52.35
2023-09-22T19:00:05.528Z,49.03
2023-09-22T19:04:19.192Z,37.88
2023-09-22T19:08:32.054Z,37.40
2023-09-22T19:12:44.564Z,42.08
2023-09-22T19:16:57.149Z,47.20
2023-09-22T19:21:09.616Z,43.80
2023-09-22T19:25:22.630Z,39.97
2023-09-22T19:29:35.192Z,42.55
2023-09-22T19:33:48.253Z,47.33
2023-09-22T19:38:01.682Z,35.85
2023-09-22T19:42:14.322Z,42.60
2023-09-22T19:46:28.365Z,42.72
2023-09-22T19:50:41.005Z,42.58
2023-09-22T19:54:53.718Z,34.63
2023-09-22T19:59:07.578Z,40.25
2023-09-22T20:03:20.519Z,43.65
2023-09-22T20:07:34.237Z,39.15
2023-09-22T20:11:48.159Z,56.72
2023-09-22T20:16:02.356Z,41.40
2023-09-22T20:20:16.534Z,49.58
2023-09-22T20:24:29.736Z,41.42
2023-09-22T20:28:42.298Z,37.25
2023-09-22T20:32:55.011Z,43.50
2023-09-22T20:37:07.569Z,36.83
2023-09-22T20:41:20.096Z,40.45
2023-09-22T20:45:32.773Z,45.88
2023-09-22T20:49:46.618Z,47.33
2023-09-22T20:53:59.532Z,45.35
2023-09-22T20:58:12.311Z,43.38
2023-09-22T21:02:24.938Z,45.95
2023-09-22T21:06:37.920Z,49.33
2023-09-22T21:10:56.682Z,57.25
2023-09-22T21:15:11.533Z,51.85
2023-09-22T21:19:26.046Z,51.08
2023-09-22T21:23:38.799Z,51.42
2023-09-22T21:27:52.431Z,38.90
2023-09-22T21:32:05.150Z,58.55
2023-09-22T21:36:19.428Z,54.58
2023-09-22T21:40:32.369Z,40.67
2023-09-22T21:44:45.440Z,43.22
2023-09-22T21:48:58.058Z,48.35
2023-09-22T21:53:11.129Z,59.47
2023-09-22T21:57:24.027Z,58.72
2023-09-22T22:01:36.572Z,50.47
2023-09-22T22:05:49.131Z,49.53
2023-09-22T22:10:02.269Z,63.42
2023-09-22T22:14:16.260Z,57.97
2023-09-22T22:18:28.827Z,55.40
2023-09-22T22:22:43.148Z,55.50
2023-09-22T22:26:56.877Z,56.75
2023-09-22T22:31:09.583Z,52.25
2023-09-22T22:35:22.542Z,51.88
2023-09-22T22:39:35.556Z,50.95
2023-09-22T22:43:48.222Z,53.45
2023-09-22T22:48:05.176Z,55.10
2023-09-22T22:52:18.044Z,59.40
2023-09-22T22:56:30.697Z,47.55
2023-09-22T23:00:43.401Z,60.50
2023-09-22T23:04:56.498Z,47.80
2023-09-22T23:09:15.506Z,54.80
2023-09-22T23:13:30.317Z,59.58
2023-09-22T23:17:42.962Z,42.95
2023-09-22T23:21:56.128Z,48.60
2023-09-22T23:26:08.645Z,50.22
2023-09-22T23:30:24.346Z,54.75
2023-09-22T23:34:37.653Z,50.10
2023-09-22T23:38:50.245Z,50.58
2023-09-22T23:43:04.909Z,41.28
2023-09-22T23:47:17.429Z,47.88
2023-09-22T23:51:29.958Z,44.70
2023-09-22T23:55:42.443Z,49.53
2023-09-22T23:59:55.039Z,42.72
